sensor_id;sensor_type;location;lat;lon;timestamp;P1;durP1;ratioP1;P2;durP2;ratioP2
20067;SDS011;10194;50.824;7.134;2022-10-16T00:01:12;224.97;;;166.67;;
20067;SDS011;10194;50.824;7.134;2022-10-16T00:03:40;213.43;;;161.50;;
20067;SDS011;10194;50.824;7.134;2022-10-16T00:06:07;214.00;;;163.97;;
20067;SDS011;10194;50.824;7.134;2022-10-16T00:08:34;208.67;;;156.70;;
20067;SDS011;10194;50.824;7.134;2022-10-16T00:11:02;203.77;;;152.20;;
20067;SDS011;10194;50.824;7.134;2022-10-16T00:13:32;199.37;;;147.30;;
20067;SDS011;10194;50.824;7.134;2022-10-16T00:15:59;199.33;;;144.40;;
20067;SDS011;10194;50.824;7.134;2022-10-16T00:18:26;196.43;;;140.70;;
20067;SDS011;10194;50.824;7.134;2022-10-16T00:20:53;193.07;;;135.77;;
20067;SDS011;10194;50.824;7.134;2022-10-16T00:23:19;194.40;;;134.80;;
20067;SDS011;10194;50.824;7.134;2022-10-16T00:25:55;192.57;;;136.33;;
20067;SDS011;10194;50.824;7.134;2022-10-16T00:28:30;195.70;;;143.63;;
20067;SDS011;10194;50.824;7.134;2022-10-16T00:30:56;195.00;;;139.40;;
20067;SDS011;10194;50.824;7.134;2022-10-16T00:33:22;197.40;;;141.87;;
20067;SDS011;10194;50.824;7.134;2022-10-16T00:35:48;197.27;;;139.80;;
20067;SDS011;10194;50.824;7.134;2022-10-16T00:38:15;192.23;;;135.30;;
20067;SDS011;10194;50.824;7.134;2022-10-16T00:40:42;190.77;;;131.03;;
20067;SDS011;10194;50.824;7.134;2022-10-16T00:43:32;194.47;;;135.10;;
20067;SDS011;10194;50.824;7.134;2022-10-16T00:48:48;206.90;;;157.93;;
20067;SDS011;10194;50.824;7.134;2022-10-16T00:51:45;211.57;;;167.33;;
20067;SDS011;10194;50.824;7.134;2022-10-16T00:54:18;217.27;;;177.30;;
20067;SDS011;10194;50.824;7.134;2022-10-16T00:56:50;220.67;;;172.60;;
20067;SDS011;10194;50.824;7.134;2022-10-16T00:59:19;209.33;;;159.97;;
20067;SDS011;10194;50.824;7.134;2022-10-16T01:02:06;209.77;;;159.40;;
20067;SDS011;10194;50.824;7.134;2022-10-16T01:04:39;205.03;;;156.93;;
20067;SDS011;10194;50.824;7.134;2022-10-16T01:12:50;217.17;;;174.50;;
20067;SDS011;10194;50.824;7.134;2022-10-16T01:15:52;220.20;;;183.33;;
20067;SDS011;10194;50.824;7.134;2022-10-16T01:21:44;225.63;;;197.93;;
20067;SDS011;10194;50.824;7.134;2022-10-16T01:24:11;227.67;;;201.43;;
20067;SDS011;10194;50.824;7.134;2022-10-16T01:35:21;217.93;;;182.63;;
20067;SDS011;10194;50.824;7.134;2022-10-16T01:38:08;222.40;;;187.10;;
20067;SDS011;10194;50.824;7.134;2022-10-16T01:40:46;239.43;;;208.97;;
20067;SDS011;10194;50.824;7.134;2022-10-16T01:43:20;227.97;;;194.90;;
20067;SDS011;10194;50.824;7.134;2022-10-16T01:45:52;220.70;;;188.83;;
20067;SDS011;10194;50.824;7.134;2022-10-16T01:48:19;222.87;;;187.57;;
20067;SDS011;10194;50.824;7.134;2022-10-16T01:50:58;223.83;;;190.37;;
20067;SDS011;10194;50.824;7.134;2022-10-16T01:53:30;220.50;;;184.93;;
20067;SDS011;10194;50.824;7.134;2022-10-16T01:55:58;216.70;;;180.13;;
20067;SDS011;10194;50.824;7.134;2022-10-16T01:58:25;221.47;;;193.03;;
20067;SDS011;10194;50.824;7.134;2022-10-16T02:00:51;230.80;;;204.90;;
20067;SDS011;10194;50.824;7.134;2022-10-16T02:03:19;235.33;;;209.70;;
20067;SDS011;10194;50.824;7.134;2022-10-16T02:05:47;241.33;;;214.97;;
20067;SDS011;10194;50.824;7.134;2022-10-16T02:08:21;242.60;;;216.00;;
20067;SDS011;10194;50.824;7.134;2022-10-16T02:10:49;232.77;;;207.40;;
20067;SDS011;10194;50.824;7.134;2022-10-16T02:13:17;232.33;;;206.60;;
20067;SDS011;10194;50.824;7.134;2022-10-16T02:15:51;229.83;;;202.13;;
20067;SDS011;10194;50.824;7.134;2022-10-16T02:18:17;225.00;;;198.33;;
20067;SDS011;10194;50.824;7.134;2022-10-16T02:20:47;217.13;;;185.23;;
20067;SDS011;10194;50.824;7.134;2022-10-16T02:23:27;215.07;;;176.70;;
20067;SDS011;10194;50.824;7.134;2022-10-16T02:26:07;212.43;;;176.40;;
20067;SDS011;10194;50.824;7.134;2022-10-16T02:28:42;209.77;;;171.00;;
20067;SDS011;10194;50.824;7.134;2022-10-16T02:31:14;211.10;;;173.57;;
20067;SDS011;10194;50.824;7.134;2022-10-16T02:33:47;212.73;;;174.53;;
20067;SDS011;10194;50.824;7.134;2022-10-16T02:36:15;209.47;;;166.10;;
20067;SDS011;10194;50.824;7.134;2022-10-16T02:38:41;200.13;;;152.50;;
20067;SDS011;10194;50.824;7.134;2022-10-16T02:41:07;203.27;;;149.63;;
20067;SDS011;10194;50.824;7.134;2022-10-16T02:43:33;198.43;;;150.23;;
20067;SDS011;10194;50.824;7.134;2022-10-16T02:45:59;198.13;;;148.67;;
20067;SDS011;10194;50.824;7.134;2022-10-16T02:48:25;199.20;;;147.27;;
20067;SDS011;10194;50.824;7.134;2022-10-16T02:50:51;194.50;;;143.33;;
20067;SDS011;10194;50.824;7.134;2022-10-16T02:53:17;201.07;;;148.20;;
20067;SDS011;10194;50.824;7.134;2022-10-16T02:55:43;196.67;;;145.47;;
20067;SDS011;10194;50.824;7.134;2022-10-16T02:58:08;211.13;;;166.37;;
20067;SDS011;10194;50.824;7.134;2022-10-16T03:00:34;201.63;;;152.63;;
20067;SDS011;10194;50.824;7.134;2022-10-16T03:03:00;202.53;;;151.87;;
20067;SDS011;10194;50.824;7.134;2022-10-16T03:05:26;198.10;;;144.90;;
20067;SDS011;10194;50.824;7.134;2022-10-16T03:07:51;202.97;;;154.73;;
20067;SDS011;10194;50.824;7.134;2022-10-16T03:10:17;205.13;;;162.30;;
20067;SDS011;10194;50.824;7.134;2022-10-16T03:12:43;206.53;;;155.87;;
20067;SDS011;10194;50.824;7.134;2022-10-16T03:15:09;203.07;;;151.67;;
20067;SDS011;10194;50.824;7.134;2022-10-16T03:17:35;200.40;;;150.27;;
20067;SDS011;10194;50.824;7.134;2022-10-16T03:20:01;203.23;;;153.93;;
20067;SDS011;10194;50.824;7.134;2022-10-16T03:22:28;198.50;;;147.43;;
20067;SDS011;10194;50.824;7.134;2022-10-16T03:24:53;203.47;;;156.50;;
20067;SDS011;10194;50.824;7.134;2022-10-16T03:27:19;206.30;;;161.90;;
20067;SDS011;10194;50.824;7.134;2022-10-16T03:29:45;208.57;;;165.03;;
20067;SDS011;10194;50.824;7.134;2022-10-16T03:32:11;210.03;;;172.77;;
20067;SDS011;10194;50.824;7.134;2022-10-16T03:34:36;209.10;;;163.67;;
20067;SDS011;10194;50.824;7.134;2022-10-16T03:37:02;210.40;;;164.20;;
20067;SDS011;10194;50.824;7.134;2022-10-16T03:39:28;207.93;;;166.57;;
20067;SDS011;10194;50.824;7.134;2022-10-16T03:41:54;202.87;;;156.30;;
20067;SDS011;10194;50.824;7.134;2022-10-16T03:44:19;203.80;;;157.37;;
20067;SDS011;10194;50.824;7.134;2022-10-16T03:46:46;209.13;;;161.60;;
20067;SDS011;10194;50.824;7.134;2022-10-16T03:49:12;208.53;;;167.87;;
20067;SDS011;10194;50.824;7.134;2022-10-16T03:51:37;207.40;;;163.83;;
20067;SDS011;10194;50.824;7.134;2022-10-16T03:54:03;207.10;;;162.83;;
20067;SDS011;10194;50.824;7.134;2022-10-16T03:56:29;204.03;;;161.27;;
20067;SDS011;10194;50.824;7.134;2022-10-16T03:58:55;200.53;;;154.67;;
20067;SDS011;10194;50.824;7.134;2022-10-16T04:01:20;202.60;;;155.17;;
20067;SDS011;10194;50.824;7.134;2022-10-16T04:03:46;204.23;;;158.60;;
20067;SDS011;10194;50.824;7.134;2022-10-16T04:06:12;205.47;;;161.47;;
20067;SDS011;10194;50.824;7.134;2022-10-16T04:08:37;205.30;;;157.67;;
20067;SDS011;10194;50.824;7.134;2022-10-16T04:11:04;201.23;;;153.43;;
20067;SDS011;10194;50.824;7.134;2022-10-16T04:13:30;193.20;;;144.70;;
20067;SDS011;10194;50.824;7.134;2022-10-16T04:15:56;195.00;;;143.20;;
20067;SDS011;10194;50.824;7.134;2022-10-16T04:18:21;196.80;;;142.90;;
20067;SDS011;10194;50.824;7.134;2022-10-16T04:20:48;196.87;;;145.47;;
20067;SDS011;10194;50.824;7.134;2022-10-16T04:23:13;191.13;;;138.07;;
20067;SDS011;10194;50.824;7.134;2022-10-16T04:25:39;193.00;;;139.33;;
20067;SDS011;10194;50.824;7.134;2022-10-16T04:28:05;193.73;;;142.03;;
20067;SDS011;10194;50.824;7.134;2022-10-16T04:30:30;195.60;;;145.60;;
20067;SDS011;10194;50.824;7.134;2022-10-16T04:32:58;195.50;;;139.00;;
20067;SDS011;10194;50.824;7.134;2022-10-16T04:35:24;190.13;;;135.83;;
20067;SDS011;10194;50.824;7.134;2022-10-16T04:37:49;186.27;;;127.93;;
20067;SDS011;10194;50.824;7.134;2022-10-16T04:40:15;182.93;;;125.67;;
20067;SDS011;10194;50.824;7.134;2022-10-16T04:42:41;193.03;;;136.37;;
20067;SDS011;10194;50.824;7.134;2022-10-16T04:45:07;191.90;;;140.27;;
20067;SDS011;10194;50.824;7.134;2022-10-16T04:47:33;190.53;;;135.47;;
20067;SDS011;10194;50.824;7.134;2022-10-16T04:49:59;194.63;;;140.47;;
20067;SDS011;10194;50.824;7.134;2022-10-16T04:52:27;192.80;;;137.87;;
20067;SDS011;10194;50.824;7.134;2022-10-16T04:54:53;188.33;;;135.07;;
20067;SDS011;10194;50.824;7.134;2022-10-16T04:57:20;190.97;;;139.37;;
20067;SDS011;10194;50.824;7.134;2022-10-16T04:59:46;190.70;;;134.63;;
20067;SDS011;10194;50.824;7.134;2022-10-16T05:02:12;194.03;;;144.80;;
20067;SDS011;10194;50.824;7.134;2022-10-16T05:04:37;194.47;;;144.43;;
20067;SDS011;10194;50.824;7.134;2022-10-16T05:07:03;194.80;;;141.50;;
20067;SDS011;10194;50.824;7.134;2022-10-16T05:09:29;192.43;;;137.60;;
20067;SDS011;10194;50.824;7.134;2022-10-16T05:11:54;187.83;;;129.10;;
20067;SDS011;10194;50.824;7.134;2022-10-16T05:14:20;189.93;;;135.40;;
20067;SDS011;10194;50.824;7.134;2022-10-16T05:16:46;190.00;;;136.50;;
20067;SDS011;10194;50.824;7.134;2022-10-16T05:19:13;190.70;;;132.83;;
20067;SDS011;10194;50.824;7.134;2022-10-16T05:21:38;190.93;;;136.30;;
20067;SDS011;10194;50.824;7.134;2022-10-16T05:24:04;191.47;;;138.00;;
20067;SDS011;10194;50.824;7.134;2022-10-16T05:26:30;195.17;;;146.17;;
20067;SDS011;10194;50.824;7.134;2022-10-16T05:28:56;199.47;;;151.83;;
20067;SDS011;10194;50.824;7.134;2022-10-16T05:31:21;200.47;;;145.57;;
20067;SDS011;10194;50.824;7.134;2022-10-16T05:33:47;197.30;;;143.87;;
20067;SDS011;10194;50.824;7.134;2022-10-16T05:36:13;194.97;;;144.40;;
20067;SDS011;10194;50.824;7.134;2022-10-16T05:38:39;208.20;;;168.17;;
20067;SDS011;10194;50.824;7.134;2022-10-16T05:41:05;202.23;;;157.70;;
20067;SDS011;10194;50.824;7.134;2022-10-16T05:43:31;203.27;;;155.03;;
20067;SDS011;10194;50.824;7.134;2022-10-16T05:45:58;202.07;;;156.33;;
20067;SDS011;10194;50.824;7.134;2022-10-16T05:48:30;201.00;;;156.13;;
20067;SDS011;10194;50.824;7.134;2022-10-16T05:51:00;205.10;;;159.80;;
20067;SDS011;10194;50.824;7.134;2022-10-16T05:53:34;204.67;;;161.37;;
20067;SDS011;10194;50.824;7.134;2022-10-16T05:56:02;208.33;;;164.63;;
20067;SDS011;10194;50.824;7.134;2022-10-16T05:58:35;203.30;;;158.27;;
20067;SDS011;10194;50.824;7.134;2022-10-16T06:01:03;204.03;;;161.63;;
20067;SDS011;10194;50.824;7.134;2022-10-16T06:03:33;205.03;;;161.27;;
20067;SDS011;10194;50.824;7.134;2022-10-16T06:05:59;204.27;;;159.70;;
20067;SDS011;10194;50.824;7.134;2022-10-16T06:08:35;204.53;;;159.93;;
20067;SDS011;10194;50.824;7.134;2022-10-16T06:11:02;205.67;;;160.77;;
20067;SDS011;10194;50.824;7.134;2022-10-16T06:13:34;209.53;;;162.60;;
20067;SDS011;10194;50.824;7.134;2022-10-16T06:16:00;202.10;;;154.93;;
20067;SDS011;10194;50.824;7.134;2022-10-16T06:18:28;205.33;;;158.10;;
20067;SDS011;10194;50.824;7.134;2022-10-16T06:20:55;209.07;;;169.47;;
20067;SDS011;10194;50.824;7.134;2022-10-16T06:23:21;210.87;;;167.03;;
20067;SDS011;10194;50.824;7.134;2022-10-16T06:25:48;207.40;;;163.07;;
20067;SDS011;10194;50.824;7.134;2022-10-16T06:28:14;212.20;;;172.33;;
20067;SDS011;10194;50.824;7.134;2022-10-16T06:30:41;211.00;;;172.80;;
20067;SDS011;10194;50.824;7.134;2022-10-16T06:33:10;211.47;;;171.70;;
20067;SDS011;10194;50.824;7.134;2022-10-16T06:35:36;213.83;;;178.67;;
20067;SDS011;10194;50.824;7.134;2022-10-16T06:38:02;218.13;;;181.63;;
20067;SDS011;10194;50.824;7.134;2022-10-16T06:40:28;213.90;;;176.60;;
20067;SDS011;10194;50.824;7.134;2022-10-16T06:42:54;219.47;;;180.37;;
20067;SDS011;10194;50.824;7.134;2022-10-16T06:45:20;215.97;;;180.90;;
20067;SDS011;10194;50.824;7.134;2022-10-16T06:47:46;215.33;;;175.77;;
20067;SDS011;10194;50.824;7.134;2022-10-16T06:50:12;201.20;;;151.27;;
20067;SDS011;10194;50.824;7.134;2022-10-16T06:52:38;206.57;;;159.63;;
20067;SDS011;10194;50.824;7.134;2022-10-16T06:55:03;202.47;;;154.20;;
20067;SDS011;10194;50.824;7.134;2022-10-16T06:57:30;198.03;;;151.90;;
20067;SDS011;10194;50.824;7.134;2022-10-16T06:59:56;194.53;;;143.93;;
20067;SDS011;10194;50.824;7.134;2022-10-16T07:02:22;200.90;;;145.63;;
20067;SDS011;10194;50.824;7.134;2022-10-16T07:04:47;195.70;;;146.53;;
20067;SDS011;10194;50.824;7.134;2022-10-16T07:07:13;193.60;;;138.57;;
20067;SDS011;10194;50.824;7.134;2022-10-16T07:09:39;195.57;;;138.80;;
20067;SDS011;10194;50.824;7.134;2022-10-16T07:12:05;192.37;;;135.50;;
20067;SDS011;10194;50.824;7.134;2022-10-16T07:14:31;190.70;;;137.73;;
20067;SDS011;10194;50.824;7.134;2022-10-16T07:16:57;185.23;;;129.57;;
20067;SDS011;10194;50.824;7.134;2022-10-16T07:19:22;187.93;;;132.67;;
20067;SDS011;10194;50.824;7.134;2022-10-16T07:21:50;190.43;;;134.17;;
20067;SDS011;10194;50.824;7.134;2022-10-16T07:24:16;186.73;;;131.33;;
20067;SDS011;10194;50.824;7.134;2022-10-16T07:26:43;192.83;;;133.40;;
20067;SDS011;10194;50.824;7.134;2022-10-16T07:29:17;187.00;;;130.27;;
20067;SDS011;10194;50.824;7.134;2022-10-16T07:31:45;188.97;;;133.70;;
20067;SDS011;10194;50.824;7.134;2022-10-16T07:34:13;187.27;;;125.83;;
20067;SDS011;10194;50.824;7.134;2022-10-16T07:36:41;187.03;;;125.70;;
20067;SDS011;10194;50.824;7.134;2022-10-16T07:39:06;183.40;;;120.70;;
20067;SDS011;10194;50.824;7.134;2022-10-16T07:41:33;184.10;;;122.17;;
20067;SDS011;10194;50.824;7.134;2022-10-16T07:44:01;188.00;;;126.83;;
20067;SDS011;10194;50.824;7.134;2022-10-16T07:46:28;186.33;;;124.60;;
20067;SDS011;10194;50.824;7.134;2022-10-16T07:48:55;185.73;;;125.23;;
20067;SDS011;10194;50.824;7.134;2022-10-16T07:51:21;186.53;;;126.77;;
20067;SDS011;10194;50.824;7.134;2022-10-16T07:53:49;187.23;;;129.27;;
20067;SDS011;10194;50.824;7.134;2022-10-16T07:56:17;193.73;;;128.43;;
20067;SDS011;10194;50.824;7.134;2022-10-16T07:58:44;192.33;;;130.27;;
20067;SDS011;10194;50.824;7.134;2022-10-16T08:01:11;181.87;;;123.80;;
20067;SDS011;10194;50.824;7.134;2022-10-16T08:03:41;185.93;;;122.60;;
20067;SDS011;10194;50.824;7.134;2022-10-16T08:06:14;182.53;;;119.33;;
20067;SDS011;10194;50.824;7.134;2022-10-16T08:08:41;173.53;;;105.90;;
20067;SDS011;10194;50.824;7.134;2022-10-16T08:11:07;190.57;;;131.43;;
20067;SDS011;10194;50.824;7.134;2022-10-16T08:13:33;190.30;;;129.73;;
20067;SDS011;10194;50.824;7.134;2022-10-16T08:15:59;191.00;;;132.87;;
20067;SDS011;10194;50.824;7.134;2022-10-16T08:18:25;193.30;;;134.87;;
20067;SDS011;10194;50.824;7.134;2022-10-16T08:20:55;192.53;;;132.53;;
20067;SDS011;10194;50.824;7.134;2022-10-16T08:23:22;194.20;;;134.60;;
20067;SDS011;10194;50.824;7.134;2022-10-16T08:25:50;195.17;;;137.60;;
20067;SDS011;10194;50.824;7.134;2022-10-16T08:28:20;191.53;;;133.43;;
20067;SDS011;10194;50.824;7.134;2022-10-16T08:30:47;194.10;;;135.07;;
20067;SDS011;10194;50.824;7.134;2022-10-16T08:33:13;195.87;;;128.77;;
20067;SDS011;10194;50.824;7.134;2022-10-16T08:35:39;187.43;;;124.43;;
20067;SDS011;10194;50.824;7.134;2022-10-16T08:38:05;196.10;;;132.00;;
20067;SDS011;10194;50.824;7.134;2022-10-16T08:40:32;199.07;;;129.20;;
20067;SDS011;10194;50.824;7.134;2022-10-16T08:51:23;182.00;;;118.00;;
20067;SDS011;10194;50.824;7.134;2022-10-16T08:53:56;181.17;;;115.73;;
20067;SDS011;10194;50.824;7.134;2022-10-16T08:56:24;180.10;;;116.63;;
20067;SDS011;10194;50.824;7.134;2022-10-16T08:58:51;175.77;;;112.20;;
20067;SDS011;10194;50.824;7.134;2022-10-16T09:01:19;184.93;;;119.47;;
20067;SDS011;10194;50.824;7.134;2022-10-16T09:04:07;183.53;;;116.30;;
20067;SDS011;10194;50.824;7.134;2022-10-16T09:06:57;178.83;;;114.43;;
20067;SDS011;10194;50.824;7.134;2022-10-16T09:18:13;176.10;;;109.13;;
20067;SDS011;10194;50.824;7.134;2022-10-16T09:20:44;183.33;;;109.57;;
20067;SDS011;10194;50.824;7.134;2022-10-16T09:23:28;176.23;;;105.80;;
20067;SDS011;10194;50.824;7.134;2022-10-16T09:25:56;166.90;;;99.47;;
20067;SDS011;10194;50.824;7.134;2022-10-16T09:28:24;166.07;;;95.93;;
20067;SDS011;10194;50.824;7.134;2022-10-16T09:30:50;168.03;;;99.83;;
20067;SDS011;10194;50.824;7.134;2022-10-16T09:33:17;175.43;;;99.27;;
20067;SDS011;10194;50.824;7.134;2022-10-16T09:35:50;179.83;;;101.03;;
20067;SDS011;10194;50.824;7.134;2022-10-16T09:40:59;173.40;;;94.90;;
20067;SDS011;10194;50.824;7.134;2022-10-16T09:46:25;193.70;;;106.10;;
20067;SDS011;10194;50.824;7.134;2022-10-16T09:49:04;172.37;;;99.00;;
20067;SDS011;10194;50.824;7.134;2022-10-16T09:51:51;165.27;;;92.33;;
20067;SDS011;10194;50.824;7.134;2022-10-16T09:54:37;160.67;;;89.87;;
20067;SDS011;10194;50.824;7.134;2022-10-16T09:57:18;160.40;;;90.60;;
20067;SDS011;10194;50.824;7.134;2022-10-16T09:59:49;165.83;;;91.77;;
20067;SDS011;10194;50.824;7.134;2022-10-16T10:02:20;163.33;;;91.27;;
20067;SDS011;10194;50.824;7.134;2022-10-16T10:04:55;167.90;;;93.93;;
20067;SDS011;10194;50.824;7.134;2022-10-16T10:07:26;172.50;;;92.57;;
20067;SDS011;10194;50.824;7.134;2022-10-16T10:09:59;166.23;;;89.93;;
20067;SDS011;10194;50.824;7.134;2022-10-16T10:16:46;165.10;;;94.10;;
20067;SDS011;10194;50.824;7.134;2022-10-16T10:19:16;164.03;;;92.63;;
20067;SDS011;10194;50.824;7.134;2022-10-16T10:21:50;165.00;;;96.10;;
20067;SDS011;10194;50.824;7.134;2022-10-16T10:24:17;166.83;;;98.90;;
20067;SDS011;10194;50.824;7.134;2022-10-16T10:26:48;160.70;;;91.50;;
20067;SDS011;10194;50.824;7.134;2022-10-16T10:32:55;168.30;;;90.53;;
20067;SDS011;10194;50.824;7.134;2022-10-16T10:44:16;153.53;;;82.77;;
20067;SDS011;10194;50.824;7.134;2022-10-16T10:56:58;154.83;;;82.63;;
20067;SDS011;10194;50.824;7.134;2022-10-16T11:02:21;152.97;;;82.17;;
20067;SDS011;10194;50.824;7.134;2022-10-16T11:10:46;154.87;;;84.97;;
20067;SDS011;10194;50.824;7.134;2022-10-16T11:13:42;155.67;;;82.57;;
20067;SDS011;10194;50.824;7.134;2022-10-16T11:17:23;159.53;;;82.97;;
20067;SDS011;10194;50.824;7.134;2022-10-16T11:23:00;163.90;;;85.87;;
20067;SDS011;10194;50.824;7.134;2022-10-16T11:25:32;155.90;;;82.63;;
20067;SDS011;10194;50.824;7.134;2022-10-16T11:28:11;154.17;;;83.30;;
20067;SDS011;10194;50.824;7.134;2022-10-16T11:34:15;154.27;;;81.50;;
20067;SDS011;10194;50.824;7.134;2022-10-16T11:36:53;154.03;;;81.17;;
20067;SDS011;10194;50.824;7.134;2022-10-16T11:39:30;151.63;;;80.47;;
20067;SDS011;10194;50.824;7.134;2022-10-16T11:41:59;152.57;;;80.37;;
20067;SDS011;10194;50.824;7.134;2022-10-16T11:47:35;152.50;;;79.50;;
20067;SDS011;10194;50.824;7.134;2022-10-16T11:55:36;152.57;;;80.60;;
20067;SDS011;10194;50.824;7.134;2022-10-16T12:03:35;152.63;;;80.80;;
20067;SDS011;10194;50.824;7.134;2022-10-16T12:06:33;152.83;;;81.20;;
20067;SDS011;10194;50.824;7.134;2022-10-16T12:09:27;153.77;;;80.50;;
20067;SDS011;10194;50.824;7.134;2022-10-16T12:11:58;154.20;;;82.73;;
20067;SDS011;10194;50.824;7.134;2022-10-16T12:17:33;153.77;;;81.50;;
20067;SDS011;10194;50.824;7.134;2022-10-16T12:22:37;153.77;;;81.40;;
20067;SDS011;10194;50.824;7.134;2022-10-16T12:25:23;156.27;;;82.67;;
20067;SDS011;10194;50.824;7.134;2022-10-16T12:28:04;153.07;;;81.50;;
20067;SDS011;10194;50.824;7.134;2022-10-16T12:30:40;153.00;;;81.67;;
20067;SDS011;10194;50.824;7.134;2022-10-16T12:33:21;152.07;;;81.20;;
20067;SDS011;10194;50.824;7.134;2022-10-16T12:36:00;153.20;;;80.83;;
20067;SDS011;10194;50.824;7.134;2022-10-16T12:38:38;153.73;;;81.13;;
20067;SDS011;10194;50.824;7.134;2022-10-16T12:41:30;155.17;;;81.57;;
20067;SDS011;10194;50.824;7.134;2022-10-16T12:44:01;154.57;;;81.87;;
20067;SDS011;10194;50.824;7.134;2022-10-16T12:51:39;157.27;;;82.53;;
20067;SDS011;10194;50.824;7.134;2022-10-16T12:57:01;154.50;;;81.97;;
20067;SDS011;10194;50.824;7.134;2022-10-16T12:59:58;153.87;;;81.50;;
20067;SDS011;10194;50.824;7.134;2022-10-16T13:02:49;156.40;;;82.40;;
20067;SDS011;10194;50.824;7.134;2022-10-16T13:06:06;155.17;;;80.93;;
20067;SDS011;10194;50.824;7.134;2022-10-16T13:09:03;155.50;;;79.63;;
20067;SDS011;10194;50.824;7.134;2022-10-16T13:11:52;161.50;;;83.10;;
20067;SDS011;10194;50.824;7.134;2022-10-16T13:14:28;161.90;;;82.97;;
20067;SDS011;10194;50.824;7.134;2022-10-16T13:17:36;154.73;;;82.20;;
20067;SDS011;10194;50.824;7.134;2022-10-16T13:23:16;156.07;;;83.07;;
20067;SDS011;10194;50.824;7.134;2022-10-16T13:28:15;155.57;;;86.53;;
20067;SDS011;10194;50.824;7.134;2022-10-16T13:30:53;153.00;;;82.57;;
20067;SDS011;10194;50.824;7.134;2022-10-16T13:36:21;151.90;;;81.30;;
20067;SDS011;10194;50.824;7.134;2022-10-16T13:44:31;152.60;;;81.80;;
20067;SDS011;10194;50.824;7.134;2022-10-16T13:47:18;154.13;;;81.00;;
20067;SDS011;10194;50.824;7.134;2022-10-16T13:50:03;153.47;;;83.50;;
20067;SDS011;10194;50.824;7.134;2022-10-16T13:52:38;157.33;;;83.80;;
20067;SDS011;10194;50.824;7.134;2022-10-16T13:55:13;152.67;;;81.63;;
20067;SDS011;10194;50.824;7.134;2022-10-16T13:57:42;151.20;;;77.90;;
20067;SDS011;10194;50.824;7.134;2022-10-16T14:00:22;152.30;;;79.60;;
20067;SDS011;10194;50.824;7.134;2022-10-16T14:03:07;158.57;;;81.80;;
20067;SDS011;10194;50.824;7.134;2022-10-16T14:05:50;151.00;;;79.50;;
20067;SDS011;10194;50.824;7.134;2022-10-16T14:08:19;152.87;;;80.70;;
20067;SDS011;10194;50.824;7.134;2022-10-16T14:10:50;151.03;;;79.30;;
20067;SDS011;10194;50.824;7.134;2022-10-16T14:13:21;153.27;;;83.07;;
20067;SDS011;10194;50.824;7.134;2022-10-16T14:16:10;155.67;;;85.37;;
20067;SDS011;10194;50.824;7.134;2022-10-16T14:18:52;158.13;;;84.23;;
20067;SDS011;10194;50.824;7.134;2022-10-16T14:21:27;151.80;;;79.70;;
20067;SDS011;10194;50.824;7.134;2022-10-16T14:23:53;156.63;;;83.17;;
20067;SDS011;10194;50.824;7.134;2022-10-16T14:26:21;150.53;;;80.40;;
20067;SDS011;10194;50.824;7.134;2022-10-16T14:29:01;150.37;;;80.07;;
20067;SDS011;10194;50.824;7.134;2022-10-16T14:31:36;152.00;;;80.47;;
20067;SDS011;10194;50.824;7.134;2022-10-16T14:34:04;150.27;;;79.53;;
20067;SDS011;10194;50.824;7.134;2022-10-16T14:36:49;150.93;;;79.37;;
20067;SDS011;10194;50.824;7.134;2022-10-16T14:39:19;153.93;;;80.27;;
20067;SDS011;10194;50.824;7.134;2022-10-16T14:41:48;152.70;;;80.67;;
20067;SDS011;10194;50.824;7.134;2022-10-16T14:44:17;152.77;;;81.17;;
20067;SDS011;10194;50.824;7.134;2022-10-16T14:46:43;150.83;;;80.03;;
20067;SDS011;10194;50.824;7.134;2022-10-16T14:49:17;151.53;;;79.80;;
20067;SDS011;10194;50.824;7.134;2022-10-16T14:51:45;153.00;;;80.77;;
20067;SDS011;10194;50.824;7.134;2022-10-16T14:54:11;154.70;;;79.63;;
20067;SDS011;10194;50.824;7.134;2022-10-16T14:59:33;153.90;;;80.00;;
20067;SDS011;10194;50.824;7.134;2022-10-16T15:04:57;154.00;;;80.30;;
20067;SDS011;10194;50.824;7.134;2022-10-16T15:07:51;153.23;;;79.30;;
20067;SDS011;10194;50.824;7.134;2022-10-16T15:10:21;152.63;;;80.37;;
20067;SDS011;10194;50.824;7.134;2022-10-16T15:12:49;159.43;;;81.47;;
20067;SDS011;10194;50.824;7.134;2022-10-16T15:17:58;152.27;;;80.27;;
20067;SDS011;10194;50.824;7.134;2022-10-16T15:20:30;151.47;;;78.67;;
20067;SDS011;10194;50.824;7.134;2022-10-16T15:23:03;156.73;;;80.80;;
20067;SDS011;10194;50.824;7.134;2022-10-16T15:25:44;152.50;;;79.47;;
20067;SDS011;10194;50.824;7.134;2022-10-16T15:28:16;150.90;;;77.83;;
20067;SDS011;10194;50.824;7.134;2022-10-16T15:30:43;155.47;;;79.30;;
20067;SDS011;10194;50.824;7.134;2022-10-16T15:33:14;155.97;;;80.00;;
20067;SDS011;10194;50.824;7.134;2022-10-16T15:35:45;151.17;;;78.70;;
20067;SDS011;10194;50.824;7.134;2022-10-16T15:38:13;150.93;;;77.97;;
20067;SDS011;10194;50.824;7.134;2022-10-16T15:40:39;153.93;;;79.47;;
20067;SDS011;10194;50.824;7.134;2022-10-16T15:43:06;152.13;;;78.87;;
20067;SDS011;10194;50.824;7.134;2022-10-16T15:45:33;152.77;;;77.83;;
20067;SDS011;10194;50.824;7.134;2022-10-16T15:47:59;151.17;;;78.87;;
20067;SDS011;10194;50.824;7.134;2022-10-16T15:50:25;152.70;;;78.57;;
20067;SDS011;10194;50.824;7.134;2022-10-16T15:52:51;152.07;;;77.30;;
20067;SDS011;10194;50.824;7.134;2022-10-16T15:55:17;153.17;;;78.90;;
20067;SDS011;10194;50.824;7.134;2022-10-16T15:57:43;151.27;;;77.47;;
20067;SDS011;10194;50.824;7.134;2022-10-16T16:00:13;152.03;;;78.80;;
20067;SDS011;10194;50.824;7.134;2022-10-16T16:02:42;155.30;;;80.10;;
20067;SDS011;10194;50.824;7.134;2022-10-16T16:05:10;152.57;;;78.30;;
20067;SDS011;10194;50.824;7.134;2022-10-16T16:07:36;153.23;;;78.87;;
20067;SDS011;10194;50.824;7.134;2022-10-16T16:10:04;152.90;;;80.47;;
20067;SDS011;10194;50.824;7.134;2022-10-16T16:12:33;151.60;;;78.33;;
20067;SDS011;10194;50.824;7.134;2022-10-16T16:14:59;152.17;;;78.83;;
20067;SDS011;10194;50.824;7.134;2022-10-16T16:17:25;153.33;;;78.70;;
20067;SDS011;10194;50.824;7.134;2022-10-16T16:19:51;150.30;;;78.03;;
20067;SDS011;10194;50.824;7.134;2022-10-16T16:22:17;150.93;;;79.40;;
20067;SDS011;10194;50.824;7.134;2022-10-16T16:24:43;151.97;;;78.77;;
20067;SDS011;10194;50.824;7.134;2022-10-16T16:27:08;150.77;;;79.13;;
20067;SDS011;10194;50.824;7.134;2022-10-16T16:29:34;150.27;;;77.93;;
20067;SDS011;10194;50.824;7.134;2022-10-16T16:32:00;150.53;;;77.80;;
20067;SDS011;10194;50.824;7.134;2022-10-16T16:34:27;151.67;;;78.33;;
20067;SDS011;10194;50.824;7.134;2022-10-16T16:36:54;151.63;;;79.53;;